Südanflug-Wetter

Südanflüge sind sowohl am Euroairport Basel-Mulhouse-Freiburg als auch am Flughafen Unique Zürich ein Thema für die Anwohner. In Basel hängen Südanflüge von den Windverhältnissen ab. Für den Euroairport Basel-Mulhouse-Freiburg bereitet MeteoNews deshalb aktuelle Winddaten auf, die direkt auf der Homepage des Flughafens eingebunden werden. Angaben zum Flughafen Zürich finden Sie hier.

In Zürich sind Südanflüge auf die Piste 34 möglich, wenn die horizontale Sichtweite mindestens 750 m beträgt und die Wolkenuntergrenze im Anflugsektor nicht tiefer als 300 Fuss (knapp 100 m) liegt (diese Werte gelten seit dem 1. November 2004).

Prognose für Südanflüge

Morgen Sonntag sind Südanflüge möglich.
(Prognose ohne Gewähr. Die Vorhersage wird mehrmals täglich aktualisiert. Verantwortlicher Meteorologe: Patrick Suter, 16.02.2019 15:03)

Analyse der letzten METAR-Messungen

Unser Tool wertet die letzten 20 offiziellen Wettermeldungen (METAR) des Flughafens Zürich aus und entscheidet aufgrund der beiden Werte für Sichtweite und Ceiling (Hauptwolkenuntergrenze), ob Südanflüge nach obiger Definition möglich wären. Allerdings repräsentiert der Wert für die Wolkenuntergrenze in der METAR-Meldung nicht die Bewölkung im Anflugsektor sondern generell um den Flughafen. Da über die Bewölkung im Anflugsektor kurzfristig aufgrund von Beobachtungen des Towers und von Piloten entschieden wird, kann die Angabe unseres Tools in gewissen Fällen von den realen Entscheiden der Flugsicherung abweichen.

Südanflüge Datum Uhrzeit Sichtweite Ceiling Vollständige METAR-Meldung
möglich 2019-02-17 00:50:00 > 10 km LSZH 162350Z VRB02KT CAVOK M02/M04 Q1028 NOSIG
möglich 2019-02-17 00:20:00 > 10 km LSZH 162320Z 06001KT CAVOK M01/M02 Q1028 NOSIG
möglich 2019-02-16 23:50:00 > 10 km LSZH 162250Z VRB01KT CAVOK M00/M02 Q1028 NOSIG
möglich 2019-02-16 23:20:00 > 10 km LSZH 162220Z VRB01KT CAVOK M01/M02 Q1028 NOSIG
möglich 2019-02-16 22:50:00 > 10 km LSZH 162150Z VRB02KT CAVOK 00/M02 Q1028 NOSIG
möglich 2019-02-16 22:20:00 > 10 km LSZH 162120Z VRB01KT CAVOK 00/M02 Q1028 NOSIG
möglich 2019-02-16 21:50:00 > 10 km LSZH 162050Z 00000KT CAVOK 02/M01 Q1028 NOSIG
möglich 2019-02-16 21:20:00 > 10 km LSZH 162020Z 00000KT CAVOK 03/M00 Q1028 NOSIG
möglich 2019-02-16 20:50:00 > 10 km LSZH 161950Z 05001KT CAVOK 03/M01 Q1028 NOSIG
möglich 2019-02-16 20:20:00 > 10 km LSZH 161920Z 00000KT CAVOK 05/M01 Q1028 NOSIG
möglich 2019-02-16 19:50:00 > 10 km LSZH 161850Z VRB01KT CAVOK 05/00 Q1028 NOSIG
möglich 2019-02-16 19:20:00 > 10 km LSZH 161820Z VRB01KT CAVOK 07/00 Q1028 NOSIG
möglich 2019-02-16 18:50:00 > 10 km LSZH 161750Z VRB02KT CAVOK 06/M00 Q1028 NOSIG
möglich 2019-02-16 18:20:00 > 10 km LSZH 161720Z VRB02KT CAVOK 10/M00 Q1028 NOSIG
möglich 2019-02-16 17:50:00 > 10 km LSZH 161650Z VRB02KT CAVOK 09/01 Q1028 NOSIG
möglich 2019-02-16 17:20:00 > 10 km LSZH 161620Z 17002KT CAVOK 13/01 Q1028 NOSIG
möglich 2019-02-16 16:50:00 > 10 km LSZH 161550Z 00000KT CAVOK 14/01 Q1028 NOSIG
möglich 2019-02-16 16:20:00 > 10 km LSZH 161520Z VRB02KT CAVOK 15/M00 Q1028 NOSIG
möglich 2019-02-16 15:50:00 > 10 km LSZH 161450Z VRB03KT CAVOK 15/01 Q1028 NOSIG
möglich 2019-02-16 15:20:00 > 10 km LSZH 161420Z VRB02KT CAVOK 15/00 Q1028 NOSIG